sensor_id;sensor_type;location;lat;lon;timestamp;P1;durP1;ratioP1;P2;durP2;ratioP2
16800;SDS011;8518;53.236;10.384;2023-03-23T00:05:41;4.40;;;3.13;;
16800;SDS011;8518;53.236;10.384;2023-03-23T00:08:07;5.70;;;3.30;;
16800;SDS011;8518;53.236;10.384;2023-03-23T00:10:37;7.23;;;3.40;;
16800;SDS011;8518;53.236;10.384;2023-03-23T00:16:25;6.40;;;3.07;;
16800;SDS011;8518;53.236;10.384;2023-03-23T00:18:57;9.17;;;3.80;;
16800;SDS011;8518;53.236;10.384;2023-03-23T00:21:30;6.20;;;3.87;;
16800;SDS011;8518;53.236;10.384;2023-03-23T00:27:20;7.97;;;3.90;;
16800;SDS011;8518;53.236;10.384;2023-03-23T00:33:08;8.37;;;4.67;;
16800;SDS011;8518;53.236;10.384;2023-03-23T00:35:37;6.97;;;4.23;;
16800;SDS011;8518;53.236;10.384;2023-03-23T00:38:04;7.57;;;4.13;;
16800;SDS011;8518;53.236;10.384;2023-03-23T00:40:30;7.93;;;4.30;;
16800;SDS011;8518;53.236;10.384;2023-03-23T00:46:17;7.60;;;4.13;;
16800;SDS011;8518;53.236;10.384;2023-03-23T00:48:45;7.83;;;5.30;;
16800;SDS011;8518;53.236;10.384;2023-03-23T00:51:11;8.97;;;4.87;;
16800;SDS011;8518;53.236;10.384;2023-03-23T00:56:59;5.77;;;4.47;;
16800;SDS011;8518;53.236;10.384;2023-03-23T01:02:47;8.63;;;5.27;;
16800;SDS011;8518;53.236;10.384;2023-03-23T01:05:16;9.03;;;5.43;;
16800;SDS011;8518;53.236;10.384;2023-03-23T01:07:42;8.53;;;5.50;;
16800;SDS011;8518;53.236;10.384;2023-03-23T01:10:09;8.70;;;6.00;;
16800;SDS011;8518;53.236;10.384;2023-03-23T01:15:59;10.17;;;5.67;;
16800;SDS011;8518;53.236;10.384;2023-03-23T01:21:48;9.87;;;5.73;;
16800;SDS011;8518;53.236;10.384;2023-03-23T01:24:14;9.87;;;5.43;;
16800;SDS011;8518;53.236;10.384;2023-03-23T01:26:40;9.80;;;6.10;;
16800;SDS011;8518;53.236;10.384;2023-03-23T01:29:06;10.20;;;6.30;;
16800;SDS011;8518;53.236;10.384;2023-03-23T01:31:31;8.13;;;5.90;;
16800;SDS011;8518;53.236;10.384;2023-03-23T01:37:20;6.93;;;5.60;;
16800;SDS011;8518;53.236;10.384;2023-03-23T01:43:15;9.23;;;6.03;;
16800;SDS011;8518;53.236;10.384;2023-03-23T01:45:41;8.47;;;6.17;;
16800;SDS011;8518;53.236;10.384;2023-03-23T01:48:09;10.13;;;6.80;;
16800;SDS011;8518;53.236;10.384;2023-03-23T01:50:52;10.50;;;6.10;;
16800;SDS011;8518;53.236;10.384;2023-03-23T01:57:09;10.17;;;6.33;;
16800;SDS011;8518;53.236;10.384;2023-03-23T01:59:39;10.13;;;7.07;;
16800;SDS011;8518;53.236;10.384;2023-03-23T02:02:10;9.83;;;6.90;;
16800;SDS011;8518;53.236;10.384;2023-03-23T02:04:36;13.77;;;7.07;;
16800;SDS011;8518;53.236;10.384;2023-03-23T02:07:02;9.90;;;7.27;;
16800;SDS011;8518;53.236;10.384;2023-03-23T02:09:29;10.70;;;7.03;;
16800;SDS011;8518;53.236;10.384;2023-03-23T02:11:57;10.13;;;6.77;;
16800;SDS011;8518;53.236;10.384;2023-03-23T02:14:24;8.93;;;6.97;;
16800;SDS011;8518;53.236;10.384;2023-03-23T02:29:56;8.43;;;6.80;;
16800;SDS011;8518;53.236;10.384;2023-03-23T02:36:23;13.03;;;7.00;;
16800;SDS011;8518;53.236;10.384;2023-03-23T02:38:56;9.97;;;7.17;;
16800;SDS011;8518;53.236;10.384;2023-03-23T02:41:22;10.93;;;7.70;;
16800;SDS011;8518;53.236;10.384;2023-03-23T02:47:16;13.00;;;8.40;;
16800;SDS011;8518;53.236;10.384;2023-03-23T02:49:45;13.17;;;7.73;;
16800;SDS011;8518;53.236;10.384;2023-03-23T02:55:37;10.90;;;7.87;;
16800;SDS011;8518;53.236;10.384;2023-03-23T02:58:07;9.17;;;7.73;;
16800;SDS011;8518;53.236;10.384;2023-03-23T03:00:34;10.27;;;8.10;;
16800;SDS011;8518;53.236;10.384;2023-03-23T03:06:27;10.60;;;8.70;;
16800;SDS011;8518;53.236;10.384;2023-03-23T03:15:06;10.13;;;9.10;;
16800;SDS011;8518;53.236;10.384;2023-03-23T03:17:35;13.33;;;9.20;;
16800;SDS011;8518;53.236;10.384;2023-03-23T03:20:10;13.23;;;9.20;;
16800;SDS011;8518;53.236;10.384;2023-03-23T03:26:01;14.03;;;9.43;;
16800;SDS011;8518;53.236;10.384;2023-03-23T03:28:29;11.53;;;10.10;;
16800;SDS011;8518;53.236;10.384;2023-03-23T03:30:57;10.67;;;9.03;;
16800;SDS011;8518;53.236;10.384;2023-03-23T03:36:52;13.63;;;9.37;;
16800;SDS011;8518;53.236;10.384;2023-03-23T03:39:20;13.67;;;9.60;;
16800;SDS011;8518;53.236;10.384;2023-03-23T03:41:46;13.33;;;9.80;;
16800;SDS011;8518;53.236;10.384;2023-03-23T03:44:12;10.80;;;9.10;;
16800;SDS011;8518;53.236;10.384;2023-03-23T03:46:38;12.17;;;9.83;;
16800;SDS011;8518;53.236;10.384;2023-03-23T03:49:05;12.10;;;9.53;;
16800;SDS011;8518;53.236;10.384;2023-03-23T03:51:33;13.03;;;9.67;;
16800;SDS011;8518;53.236;10.384;2023-03-23T03:57:22;12.63;;;10.23;;
16800;SDS011;8518;53.236;10.384;2023-03-23T03:59:49;11.87;;;9.80;;
16800;SDS011;8518;53.236;10.384;2023-03-23T04:05:37;11.17;;;10.07;;
16800;SDS011;8518;53.236;10.384;2023-03-23T04:08:02;11.93;;;9.97;;
16800;SDS011;8518;53.236;10.384;2023-03-23T04:10:29;11.93;;;9.87;;
16800;SDS011;8518;53.236;10.384;2023-03-23T04:16:17;11.97;;;9.90;;
16800;SDS011;8518;53.236;10.384;2023-03-23T04:18:43;12.37;;;10.07;;
16800;SDS011;8518;53.236;10.384;2023-03-23T04:21:09;12.27;;;9.67;;
16800;SDS011;8518;53.236;10.384;2023-03-23T04:26:57;10.53;;;9.00;;
16800;SDS011;8518;53.236;10.384;2023-03-23T04:32:45;10.87;;;9.53;;
16800;SDS011;8518;53.236;10.384;2023-03-23T04:35:15;9.70;;;8.73;;
16800;SDS011;8518;53.236;10.384;2023-03-23T04:37:41;11.27;;;8.53;;
16800;SDS011;8518;53.236;10.384;2023-03-23T04:40:08;10.37;;;8.70;;
16800;SDS011;8518;53.236;10.384;2023-03-23T04:46:00;11.17;;;8.27;;
16800;SDS011;8518;53.236;10.384;2023-03-23T04:48:28;9.83;;;7.87;;
16800;SDS011;8518;53.236;10.384;2023-03-23T04:50:58;9.70;;;7.47;;
16800;SDS011;8518;53.236;10.384;2023-03-23T04:56:50;9.13;;;6.60;;
16800;SDS011;8518;53.236;10.384;2023-03-23T04:59:15;8.93;;;6.10;;
16800;SDS011;8518;53.236;10.384;2023-03-23T05:01:41;7.63;;;6.23;;
16800;SDS011;8518;53.236;10.384;2023-03-23T05:04:10;7.93;;;5.57;;
16800;SDS011;8518;53.236;10.384;2023-03-23T05:06:38;7.10;;;6.00;;
16800;SDS011;8518;53.236;10.384;2023-03-23T05:09:03;7.80;;;5.97;;
16800;SDS011;8518;53.236;10.384;2023-03-23T05:11:29;7.07;;;5.70;;
16800;SDS011;8518;53.236;10.384;2023-03-23T05:17:17;5.97;;;5.30;;
16800;SDS011;8518;53.236;10.384;2023-03-23T05:19:43;7.23;;;5.73;;
16800;SDS011;8518;53.236;10.384;2023-03-23T05:25:34;5.33;;;4.83;;
16800;SDS011;8518;53.236;10.384;2023-03-23T05:28:09;6.80;;;4.33;;
16800;SDS011;8518;53.236;10.384;2023-03-23T05:30:36;6.27;;;4.40;;
16800;SDS011;8518;53.236;10.384;2023-03-23T05:36:25;4.60;;;4.10;;
16800;SDS011;8518;53.236;10.384;2023-03-23T05:42:13;5.03;;;4.20;;
16800;SDS011;8518;53.236;10.384;2023-03-23T05:44:38;7.07;;;4.30;;
16800;SDS011;8518;53.236;10.384;2023-03-23T05:47:06;4.70;;;3.73;;
16800;SDS011;8518;53.236;10.384;2023-03-23T05:49:32;4.00;;;3.60;;
16800;SDS011;8518;53.236;10.384;2023-03-23T05:52:01;4.83;;;3.80;;
16800;SDS011;8518;53.236;10.384;2023-03-23T05:54:27;8.20;;;3.87;;
16800;SDS011;8518;53.236;10.384;2023-03-23T05:56:52;5.57;;;3.50;;
16800;SDS011;8518;53.236;10.384;2023-03-23T05:59:18;4.33;;;3.43;;
16800;SDS011;8518;53.236;10.384;2023-03-23T06:01:47;4.17;;;3.17;;
16800;SDS011;8518;53.236;10.384;2023-03-23T06:04:12;4.57;;;3.10;;
16800;SDS011;8518;53.236;10.384;2023-03-23T06:06:38;3.73;;;3.10;;
16800;SDS011;8518;53.236;10.384;2023-03-23T06:09:06;4.40;;;3.27;;
16800;SDS011;8518;53.236;10.384;2023-03-23T06:11:32;4.53;;;3.03;;
16800;SDS011;8518;53.236;10.384;2023-03-23T06:17:21;3.03;;;2.50;;
16800;SDS011;8518;53.236;10.384;2023-03-23T06:19:47;5.80;;;2.80;;
16800;SDS011;8518;53.236;10.384;2023-03-23T06:25:37;4.50;;;2.80;;
16800;SDS011;8518;53.236;10.384;2023-03-23T06:28:04;4.27;;;2.63;;
16800;SDS011;8518;53.236;10.384;2023-03-23T06:30:29;4.50;;;2.70;;
16800;SDS011;8518;53.236;10.384;2023-03-23T06:36:17;6.03;;;2.67;;
16800;SDS011;8518;53.236;10.384;2023-03-23T06:38:43;3.87;;;2.07;;
16800;SDS011;8518;53.236;10.384;2023-03-23T06:41:12;3.03;;;2.20;;
16800;SDS011;8518;53.236;10.384;2023-03-23T06:47:00;3.33;;;2.13;;
16800;SDS011;8518;53.236;10.384;2023-03-23T06:49:27;3.97;;;1.90;;
16800;SDS011;8518;53.236;10.384;2023-03-23T06:51:52;2.47;;;1.93;;
16800;SDS011;8518;53.236;10.384;2023-03-23T06:54:18;3.33;;;1.97;;
16800;SDS011;8518;53.236;10.384;2023-03-23T06:56:44;4.90;;;2.17;;
16800;SDS011;8518;53.236;10.384;2023-03-23T06:59:09;2.70;;;2.03;;
16800;SDS011;8518;53.236;10.384;2023-03-23T07:01:35;3.97;;;2.10;;
16800;SDS011;8518;53.236;10.384;2023-03-23T07:07:25;3.47;;;2.37;;
16800;SDS011;8518;53.236;10.384;2023-03-23T07:13:19;3.17;;;1.77;;
16800;SDS011;8518;53.236;10.384;2023-03-23T07:15:45;2.80;;;1.90;;
16800;SDS011;8518;53.236;10.384;2023-03-23T07:18:11;3.57;;;1.60;;
16800;SDS011;8518;53.236;10.384;2023-03-23T07:20:38;1.73;;;1.50;;
16800;SDS011;8518;53.236;10.384;2023-03-23T07:26:26;1.60;;;1.50;;
16800;SDS011;8518;53.236;10.384;2023-03-23T07:32:14;3.33;;;1.70;;
16800;SDS011;8518;53.236;10.384;2023-03-23T07:34:39;2.87;;;1.67;;
16800;SDS011;8518;53.236;10.384;2023-03-23T07:37:08;2.33;;;1.53;;
16800;SDS011;8518;53.236;10.384;2023-03-23T07:39:34;1.83;;;1.43;;
16800;SDS011;8518;53.236;10.384;2023-03-23T07:42:01;2.03;;;1.70;;
16800;SDS011;8518;53.236;10.384;2023-03-23T07:44:26;2.70;;;1.70;;
16800;SDS011;8518;53.236;10.384;2023-03-23T07:46:52;2.70;;;1.63;;
16800;SDS011;8518;53.236;10.384;2023-03-23T07:49:17;2.10;;;1.63;;
16800;SDS011;8518;53.236;10.384;2023-03-23T07:51:44;2.83;;;1.60;;
16800;SDS011;8518;53.236;10.384;2023-03-23T07:54:10;2.33;;;1.73;;
16800;SDS011;8518;53.236;10.384;2023-03-23T07:56:36;3.03;;;1.90;;
16800;SDS011;8518;53.236;10.384;2023-03-23T07:59:04;1.93;;;1.73;;
16800;SDS011;8518;53.236;10.384;2023-03-23T08:01:31;2.87;;;1.90;;
16800;SDS011;8518;53.236;10.384;2023-03-23T08:07:19;2.10;;;1.77;;
16800;SDS011;8518;53.236;10.384;2023-03-23T08:09:46;2.20;;;1.80;;
16800;SDS011;8518;53.236;10.384;2023-03-23T08:15:34;2.23;;;1.47;;
16800;SDS011;8518;53.236;10.384;2023-03-23T08:18:02;2.67;;;1.40;;
16800;SDS011;8518;53.236;10.384;2023-03-23T08:20:30;1.77;;;1.30;;
16800;SDS011;8518;53.236;10.384;2023-03-23T08:26:18;2.07;;;1.43;;
16800;SDS011;8518;53.236;10.384;2023-03-23T08:32:06;2.07;;;1.20;;
16800;SDS011;8518;53.236;10.384;2023-03-23T08:34:31;3.30;;;1.53;;
16800;SDS011;8518;53.236;10.384;2023-03-23T08:36:57;1.93;;;1.13;;
16800;SDS011;8518;53.236;10.384;2023-03-23T08:39:23;2.00;;;1.37;;
16800;SDS011;8518;53.236;10.384;2023-03-23T08:41:50;2.57;;;1.40;;
16800;SDS011;8518;53.236;10.384;2023-03-23T08:44:15;3.33;;;2.60;;
16800;SDS011;8518;53.236;10.384;2023-03-23T08:46:41;1.93;;;1.47;;
16800;SDS011;8518;53.236;10.384;2023-03-23T08:49:07;2.50;;;1.70;;
16800;SDS011;8518;53.236;10.384;2023-03-23T08:51:32;3.20;;;1.47;;
16800;SDS011;8518;53.236;10.384;2023-03-23T08:57:20;2.27;;;1.57;;
16800;SDS011;8518;53.236;10.384;2023-03-23T08:59:46;5.10;;;1.90;;
16800;SDS011;8518;53.236;10.384;2023-03-23T09:05:35;2.93;;;1.60;;
16800;SDS011;8518;53.236;10.384;2023-03-23T09:08:04;2.37;;;1.40;;
16800;SDS011;8518;53.236;10.384;2023-03-23T09:10:30;3.07;;;1.60;;
16800;SDS011;8518;53.236;10.384;2023-03-23T09:16:17;5.80;;;2.00;;
16800;SDS011;8518;53.236;10.384;2023-03-23T09:22:05;2.70;;;1.60;;
16800;SDS011;8518;53.236;10.384;2023-03-23T09:24:31;3.40;;;1.67;;
16800;SDS011;8518;53.236;10.384;2023-03-23T09:26:57;3.87;;;1.60;;
16800;SDS011;8518;53.236;10.384;2023-03-23T09:29:23;3.60;;;1.70;;
16800;SDS011;8518;53.236;10.384;2023-03-23T09:31:50;4.83;;;1.50;;
16800;SDS011;8518;53.236;10.384;2023-03-23T09:34:16;3.27;;;1.70;;
16800;SDS011;8518;53.236;10.384;2023-03-23T09:36:44;6.87;;;1.63;;
16800;SDS011;8518;53.236;10.384;2023-03-23T09:39:11;4.33;;;2.10;;
16800;SDS011;8518;53.236;10.384;2023-03-23T09:44:22;6.20;;;1.57;;
16800;SDS011;8518;53.236;10.384;2023-03-23T09:55:35;6.70;;;1.63;;
16800;SDS011;8518;53.236;10.384;2023-03-23T10:01:02;4.80;;;1.57;;
16800;SDS011;8518;53.236;10.384;2023-03-23T10:03:55;8.33;;;1.70;;
16800;SDS011;8518;53.236;10.384;2023-03-23T10:06:28;6.17;;;1.87;;
16800;SDS011;8518;53.236;10.384;2023-03-23T10:08:55;10.23;;;2.10;;
16800;SDS011;8518;53.236;10.384;2023-03-23T10:11:32;7.10;;;1.87;;
16800;SDS011;8518;53.236;10.384;2023-03-23T10:17:28;5.50;;;1.17;;
16800;SDS011;8518;53.236;10.384;2023-03-23T10:26:12;5.83;;;1.77;;
16800;SDS011;8518;53.236;10.384;2023-03-23T10:28:57;7.37;;;1.77;;
16800;SDS011;8518;53.236;10.384;2023-03-23T10:31:52;7.93;;;2.27;;
16800;SDS011;8518;53.236;10.384;2023-03-23T10:34:27;5.43;;;1.70;;
16800;SDS011;8518;53.236;10.384;2023-03-23T10:39:29;7.17;;;2.03;;
16800;SDS011;8518;53.236;10.384;2023-03-23T10:41:59;6.83;;;1.73;;
16800;SDS011;8518;53.236;10.384;2023-03-23T10:44:32;5.93;;;1.77;;
16800;SDS011;8518;53.236;10.384;2023-03-23T10:47:06;10.00;;;2.10;;
16800;SDS011;8518;53.236;10.384;2023-03-23T10:55:38;8.00;;;2.13;;
16800;SDS011;8518;53.236;10.384;2023-03-23T10:58:26;7.03;;;1.97;;
16800;SDS011;8518;53.236;10.384;2023-03-23T11:00:54;5.63;;;1.70;;
16800;SDS011;8518;53.236;10.384;2023-03-23T11:06:44;7.30;;;2.53;;
16800;SDS011;8518;53.236;10.384;2023-03-23T11:12:35;6.70;;;2.03;;
16800;SDS011;8518;53.236;10.384;2023-03-23T11:15:09;8.60;;;1.93;;
16800;SDS011;8518;53.236;10.384;2023-03-23T11:18:06;5.47;;;1.50;;
16800;SDS011;8518;53.236;10.384;2023-03-23T11:20:39;7.70;;;2.13;;
16800;SDS011;8518;53.236;10.384;2023-03-23T11:26:30;4.77;;;1.40;;
16800;SDS011;8518;53.236;10.384;2023-03-23T11:29:15;4.70;;;1.60;;
16800;SDS011;8518;53.236;10.384;2023-03-23T11:31:53;6.63;;;1.70;;
16800;SDS011;8518;53.236;10.384;2023-03-23T11:34:34;5.80;;;1.60;;
16800;SDS011;8518;53.236;10.384;2023-03-23T11:37:09;8.70;;;1.77;;
16800;SDS011;8518;53.236;10.384;2023-03-23T11:39:52;5.60;;;1.70;;
16800;SDS011;8518;53.236;10.384;2023-03-23T11:46:09;7.07;;;1.50;;
16800;SDS011;8518;53.236;10.384;2023-03-23T11:51:47;7.10;;;1.60;;
16800;SDS011;8518;53.236;10.384;2023-03-23T11:54:25;4.93;;;1.33;;
16800;SDS011;8518;53.236;10.384;2023-03-23T11:57:09;6.73;;;1.53;;
16800;SDS011;8518;53.236;10.384;2023-03-23T11:59:38;4.77;;;1.60;;
16800;SDS011;8518;53.236;10.384;2023-03-23T12:07:56;4.87;;;1.50;;
16800;SDS011;8518;53.236;10.384;2023-03-23T12:22:09;6.07;;;1.60;;
16800;SDS011;8518;53.236;10.384;2023-03-23T12:24:46;9.73;;;1.73;;
16800;SDS011;8518;53.236;10.384;2023-03-23T12:27:53;7.63;;;2.30;;
16800;SDS011;8518;53.236;10.384;2023-03-23T12:48:31;8.17;;;2.37;;
16800;SDS011;8518;53.236;10.384;2023-03-23T12:51:17;4.90;;;2.03;;
16800;SDS011;8518;53.236;10.384;2023-03-23T12:57:11;4.73;;;1.83;;
16800;SDS011;8518;53.236;10.384;2023-03-23T12:59:49;5.93;;;2.10;;
16800;SDS011;8518;53.236;10.384;2023-03-23T13:05:46;5.43;;;1.87;;
16800;SDS011;8518;53.236;10.384;2023-03-23T13:08:22;7.30;;;2.37;;
16800;SDS011;8518;53.236;10.384;2023-03-23T13:10:59;3.53;;;1.90;;
16800;SDS011;8518;53.236;10.384;2023-03-23T13:23:22;3.83;;;1.80;;
16800;SDS011;8518;53.236;10.384;2023-03-23T13:25:52;4.23;;;1.60;;
16800;SDS011;8518;53.236;10.384;2023-03-23T13:28:26;4.07;;;1.40;;
16800;SDS011;8518;53.236;10.384;2023-03-23T13:30:54;2.50;;;1.23;;
16800;SDS011;8518;53.236;10.384;2023-03-23T13:37:10;3.00;;;1.10;;
16800;SDS011;8518;53.236;10.384;2023-03-23T13:43:07;2.97;;;1.43;;
16800;SDS011;8518;53.236;10.384;2023-03-23T13:45:42;3.10;;;1.03;;
16800;SDS011;8518;53.236;10.384;2023-03-23T13:56:57;3.10;;;1.10;;
16800;SDS011;8518;53.236;10.384;2023-03-23T14:02:47;1.60;;;0.73;;
16800;SDS011;8518;53.236;10.384;2023-03-23T14:07:59;0.90;;;0.67;;
16800;SDS011;8518;53.236;10.384;2023-03-23T14:10:36;2.60;;;0.70;;
16800;SDS011;8518;53.236;10.384;2023-03-23T14:16:36;2.60;;;0.60;;
16800;SDS011;8518;53.236;10.384;2023-03-23T14:19:21;1.67;;;0.63;;
16800;SDS011;8518;53.236;10.384;2023-03-23T14:21:54;1.37;;;0.77;;
16800;SDS011;8518;53.236;10.384;2023-03-23T14:24:23;3.23;;;0.70;;
16800;SDS011;8518;53.236;10.384;2023-03-23T14:26:52;2.13;;;0.80;;
16800;SDS011;8518;53.236;10.384;2023-03-23T14:29:25;1.80;;;0.67;;
16800;SDS011;8518;53.236;10.384;2023-03-23T14:31:55;1.63;;;0.70;;
16800;SDS011;8518;53.236;10.384;2023-03-23T14:34:25;2.57;;;0.80;;
16800;SDS011;8518;53.236;10.384;2023-03-23T14:36:54;0.70;;;0.60;;
16800;SDS011;8518;53.236;10.384;2023-03-23T14:42:01;2.00;;;0.80;;
16800;SDS011;8518;53.236;10.384;2023-03-23T14:44:29;3.47;;;0.80;;
16800;SDS011;8518;53.236;10.384;2023-03-23T14:46:57;2.40;;;0.90;;
16800;SDS011;8518;53.236;10.384;2023-03-23T14:49:34;3.00;;;0.93;;
16800;SDS011;8518;53.236;10.384;2023-03-23T14:55:27;2.43;;;1.17;;
16800;SDS011;8518;53.236;10.384;2023-03-23T15:01:19;1.83;;;0.80;;
16800;SDS011;8518;53.236;10.384;2023-03-23T15:07:11;2.57;;;0.80;;
16800;SDS011;8518;53.236;10.384;2023-03-23T15:09:39;1.83;;;0.80;;
16800;SDS011;8518;53.236;10.384;2023-03-23T15:12:11;3.40;;;0.77;;
16800;SDS011;8518;53.236;10.384;2023-03-23T15:14:52;3.97;;;0.97;;
16800;SDS011;8518;53.236;10.384;2023-03-23T15:17:24;3.20;;;0.90;;
16800;SDS011;8518;53.236;10.384;2023-03-23T15:19:52;3.93;;;1.10;;
16800;SDS011;8518;53.236;10.384;2023-03-23T15:25:47;4.63;;;0.93;;
16800;SDS011;8518;53.236;10.384;2023-03-23T15:28:28;3.47;;;1.00;;
16800;SDS011;8518;53.236;10.384;2023-03-23T15:31:00;2.40;;;0.90;;
16800;SDS011;8518;53.236;10.384;2023-03-23T15:36:54;1.17;;;0.60;;
16800;SDS011;8518;53.236;10.384;2023-03-23T15:42:43;2.83;;;1.20;;
16800;SDS011;8518;53.236;10.384;2023-03-23T15:50:45;3.53;;;1.00;;
16800;SDS011;8518;53.236;10.384;2023-03-23T15:56:28;4.90;;;1.20;;
16800;SDS011;8518;53.236;10.384;2023-03-23T15:58:57;5.40;;;1.10;;
16800;SDS011;8518;53.236;10.384;2023-03-23T16:01:25;5.37;;;1.10;;
16800;SDS011;8518;53.236;10.384;2023-03-23T16:07:17;3.17;;;1.10;;
16800;SDS011;8518;53.236;10.384;2023-03-23T16:09:48;4.00;;;1.43;;
16800;SDS011;8518;53.236;10.384;2023-03-23T16:15:35;5.10;;;1.27;;
16800;SDS011;8518;53.236;10.384;2023-03-23T16:18:01;5.10;;;1.10;;
16800;SDS011;8518;53.236;10.384;2023-03-23T16:20:28;2.40;;;1.10;;
16800;SDS011;8518;53.236;10.384;2023-03-23T16:26:19;4.20;;;1.10;;
16800;SDS011;8518;53.236;10.384;2023-03-23T16:28:45;2.53;;;1.00;;
16800;SDS011;8518;53.236;10.384;2023-03-23T16:31:10;3.77;;;1.00;;
16800;SDS011;8518;53.236;10.384;2023-03-23T16:37:01;4.07;;;1.10;;
16800;SDS011;8518;53.236;10.384;2023-03-23T16:39:37;3.23;;;1.00;;
16800;SDS011;8518;53.236;10.384;2023-03-23T16:42:03;4.83;;;1.13;;
16800;SDS011;8518;53.236;10.384;2023-03-23T16:44:31;4.87;;;1.30;;
16800;SDS011;8518;53.236;10.384;2023-03-23T16:46:57;3.53;;;1.20;;
16800;SDS011;8518;53.236;10.384;2023-03-23T16:49:24;4.73;;;1.30;;
16800;SDS011;8518;53.236;10.384;2023-03-23T16:51:50;7.13;;;2.30;;
16800;SDS011;8518;53.236;10.384;2023-03-23T16:54:18;4.03;;;1.70;;
16800;SDS011;8518;53.236;10.384;2023-03-23T16:56:44;3.77;;;1.30;;
16800;SDS011;8518;53.236;10.384;2023-03-23T16:59:11;2.77;;;1.10;;
16800;SDS011;8518;53.236;10.384;2023-03-23T17:01:37;3.40;;;1.10;;
16800;SDS011;8518;53.236;10.384;2023-03-23T17:07:25;4.17;;;1.20;;
16800;SDS011;8518;53.236;10.384;2023-03-23T17:09:54;3.93;;;1.77;;
16800;SDS011;8518;53.236;10.384;2023-03-23T17:15:42;4.73;;;1.73;;
16800;SDS011;8518;53.236;10.384;2023-03-23T17:18:12;2.93;;;1.70;;
16800;SDS011;8518;53.236;10.384;2023-03-23T17:20:39;4.17;;;1.50;;
16800;SDS011;8518;53.236;10.384;2023-03-23T17:26:26;6.47;;;2.00;;
16800;SDS011;8518;53.236;10.384;2023-03-23T17:28:52;6.43;;;2.60;;
16800;SDS011;8518;53.236;10.384;2023-03-23T17:31:17;4.20;;;2.37;;
16800;SDS011;8518;53.236;10.384;2023-03-23T17:37:05;6.20;;;2.50;;
16800;SDS011;8518;53.236;10.384;2023-03-23T17:39:31;7.00;;;2.63;;
16800;SDS011;8518;53.236;10.384;2023-03-23T17:41:58;5.30;;;2.37;;
16800;SDS011;8518;53.236;10.384;2023-03-23T17:44:24;5.60;;;2.80;;
16800;SDS011;8518;53.236;10.384;2023-03-23T17:46:50;6.33;;;2.67;;
16800;SDS011;8518;53.236;10.384;2023-03-23T17:49:16;4.13;;;2.50;;
16800;SDS011;8518;53.236;10.384;2023-03-23T17:51:42;2.97;;;1.90;;
16800;SDS011;8518;53.236;10.384;2023-03-23T17:54:08;4.80;;;1.67;;
16800;SDS011;8518;53.236;10.384;2023-03-23T17:56:34;3.17;;;1.40;;
16800;SDS011;8518;53.236;10.384;2023-03-23T17:58:59;3.03;;;1.07;;
16800;SDS011;8518;53.236;10.384;2023-03-23T18:01:25;4.27;;;1.13;;
16800;SDS011;8518;53.236;10.384;2023-03-23T18:07:13;3.63;;;1.10;;
16800;SDS011;8518;53.236;10.384;2023-03-23T18:13:02;3.70;;;1.10;;
16800;SDS011;8518;53.236;10.384;2023-03-23T18:15:28;1.63;;;0.80;;
16800;SDS011;8518;53.236;10.384;2023-03-23T18:17:55;3.73;;;1.00;;
16800;SDS011;8518;53.236;10.384;2023-03-23T18:20:21;2.27;;;1.13;;
16800;SDS011;8518;53.236;10.384;2023-03-23T18:26:09;1.73;;;1.20;;
16800;SDS011;8518;53.236;10.384;2023-03-23T18:28:47;2.00;;;1.03;;
16800;SDS011;8518;53.236;10.384;2023-03-23T18:31:15;4.13;;;1.40;;
16800;SDS011;8518;53.236;10.384;2023-03-23T18:37:03;2.67;;;1.10;;
16800;SDS011;8518;53.236;10.384;2023-03-23T18:39:30;1.40;;;1.17;;
16800;SDS011;8518;53.236;10.384;2023-03-23T18:41:57;2.67;;;1.40;;
16800;SDS011;8518;53.236;10.384;2023-03-23T18:44:23;2.50;;;1.30;;
16800;SDS011;8518;53.236;10.384;2023-03-23T18:46:49;1.67;;;1.20;;
16800;SDS011;8518;53.236;10.384;2023-03-23T18:49:15;3.10;;;1.60;;
16800;SDS011;8518;53.236;10.384;2023-03-23T18:51:40;3.77;;;1.47;;
16800;SDS011;8518;53.236;10.384;2023-03-23T18:57:28;4.80;;;1.60;;
16800;SDS011;8518;53.236;10.384;2023-03-23T19:03:16;3.67;;;1.63;;
16800;SDS011;8518;53.236;10.384;2023-03-23T19:05:41;4.93;;;2.10;;
16800;SDS011;8518;53.236;10.384;2023-03-23T19:08:08;4.97;;;1.97;;
16800;SDS011;8518;53.236;10.384;2023-03-23T19:10:38;2.83;;;1.97;;
16800;SDS011;8518;53.236;10.384;2023-03-23T19:16:29;2.37;;;2.00;;
16800;SDS011;8518;53.236;10.384;2023-03-23T19:18:56;2.20;;;1.60;;
16800;SDS011;8518;53.236;10.384;2023-03-23T19:21:21;2.90;;;1.60;;
16800;SDS011;8518;53.236;10.384;2023-03-23T19:27:09;3.37;;;1.60;;
16800;SDS011;8518;53.236;10.384;2023-03-23T19:29:34;3.37;;;1.57;;
16800;SDS011;8518;53.236;10.384;2023-03-23T19:32:00;4.43;;;2.03;;
16800;SDS011;8518;53.236;10.384;2023-03-23T19:34:26;2.00;;;1.60;;
16800;SDS011;8518;53.236;10.384;2023-03-23T19:36:53;2.93;;;1.80;;
16800;SDS011;8518;53.236;10.384;2023-03-23T19:39:20;2.87;;;1.83;;
16800;SDS011;8518;53.236;10.384;2023-03-23T19:41:45;3.40;;;2.17;;
16800;SDS011;8518;53.236;10.384;2023-03-23T19:44:11;2.37;;;1.80;;
16800;SDS011;8518;53.236;10.384;2023-03-23T19:46:37;4.10;;;2.53;;
16800;SDS011;8518;53.236;10.384;2023-03-23T19:49:02;4.37;;;2.63;;
16800;SDS011;8518;53.236;10.384;2023-03-23T19:51:28;3.93;;;2.70;;
16800;SDS011;8518;53.236;10.384;2023-03-23T19:57:16;3.33;;;3.03;;
16800;SDS011;8518;53.236;10.384;2023-03-23T19:59:42;5.67;;;3.30;;
16800;SDS011;8518;53.236;10.384;2023-03-23T20:02:09;4.70;;;3.17;;
16800;SDS011;8518;53.236;10.384;2023-03-23T20:04:36;3.67;;;3.00;;
16800;SDS011;8518;53.236;10.384;2023-03-23T20:07:02;4.80;;;3.10;;
16800;SDS011;8518;53.236;10.384;2023-03-23T20:09:29;3.40;;;3.10;;
16800;SDS011;8518;53.236;10.384;2023-03-23T20:11:55;4.77;;;3.03;;
16800;SDS011;8518;53.236;10.384;2023-03-23T20:14:21;5.27;;;2.97;;
16800;SDS011;8518;53.236;10.384;2023-03-23T20:16:46;4.87;;;3.17;;
16800;SDS011;8518;53.236;10.384;2023-03-23T20:19:12;5.57;;;3.27;;
16800;SDS011;8518;53.236;10.384;2023-03-23T20:21:38;4.70;;;3.50;;
16800;SDS011;8518;53.236;10.384;2023-03-23T20:27:25;4.03;;;3.37;;
16800;SDS011;8518;53.236;10.384;2023-03-23T20:29:53;5.70;;;3.40;;
16800;SDS011;8518;53.236;10.384;2023-03-23T20:35:41;6.30;;;3.37;;
16800;SDS011;8518;53.236;10.384;2023-03-23T20:38:06;5.43;;;3.70;;
16800;SDS011;8518;53.236;10.384;2023-03-23T20:40:32;5.73;;;3.43;;
16800;SDS011;8518;53.236;10.384;2023-03-23T20:46:19;5.33;;;3.00;;
16800;SDS011;8518;53.236;10.384;2023-03-23T20:48:46;5.77;;;3.37;;
16800;SDS011;8518;53.236;10.384;2023-03-23T20:51:14;5.07;;;3.27;;
16800;SDS011;8518;53.236;10.384;2023-03-23T20:57:01;4.37;;;3.50;;
16800;SDS011;8518;53.236;10.384;2023-03-23T20:59:28;5.97;;;3.33;;
16800;SDS011;8518;53.236;10.384;2023-03-23T21:01:54;4.00;;;3.37;;
16800;SDS011;8518;53.236;10.384;2023-03-23T21:04:20;4.00;;;3.10;;
16800;SDS011;8518;53.236;10.384;2023-03-23T21:06:51;6.43;;;3.40;;
16800;SDS011;8518;53.236;10.384;2023-03-23T21:09:17;7.03;;;3.80;;
16800;SDS011;8518;53.236;10.384;2023-03-23T21:11:44;6.90;;;3.83;;
16800;SDS011;8518;53.236;10.384;2023-03-23T21:14:11;5.70;;;3.67;;
16800;SDS011;8518;53.236;10.384;2023-03-23T21:16:38;5.30;;;4.00;;
16800;SDS011;8518;53.236;10.384;2023-03-23T21:19:04;3.80;;;3.40;;
16800;SDS011;8518;53.236;10.384;2023-03-23T21:21:36;5.93;;;3.10;;
16800;SDS011;8518;53.236;10.384;2023-03-23T21:27:28;6.23;;;3.70;;
16800;SDS011;8518;53.236;10.384;2023-03-23T21:29:57;6.80;;;3.27;;
16800;SDS011;8518;53.236;10.384;2023-03-23T21:35:46;6.50;;;3.43;;
16800;SDS011;8518;53.236;10.384;2023-03-23T21:38:11;6.07;;;3.20;;
16800;SDS011;8518;53.236;10.384;2023-03-23T21:40:43;6.50;;;3.60;;
16800;SDS011;8518;53.236;10.384;2023-03-23T21:46:32;6.63;;;3.20;;